Time;durP1;ratioP1;P1;durP2;ratioP2;P2;SDS_P1;SDS_P2;PMS_P1;PMS_P2;Temp;Humidity;BMP_temperature;BMP_pressure;BME280_temperature;BME280_humidity;BME280_pressure;Samples;Min_cycle;Max_cycle;Signal;HPM_P1;HPM_P2
2022/05/12 00:01:54;;;;;;;0.90;0.30;;;;;;;18.04;72.68;100001.94;5068872;28;20404;-68
2022/05/12 00:04:20;;;;;;;0.50;0.50;;;;;;;18.06;72.77;99993.34;5051106;28;20024;-68
2022/05/12 00:06:45;;;;;;;0.70;0.50;;;;;;;18.03;73.04;99994.97;5069317;28;20405;-70
2022/05/12 00:09:10;;;;;;;3.15;0.68;;;;;;;18.07;72.76;100005.00;5069423;28;20056;-68
2022/05/12 00:11:36;;;;;;;0.65;0.55;;;;;;;18.04;73.41;100017.50;5071424;28;20115;-69
2022/05/12 00:14:02;;;;;;;3.72;0.57;;;;;;;18.07;73.24;100011.22;5072112;28;20039;-69
2022/05/12 00:16:27;;;;;;;0.40;0.32;;;;;;;18.09;73.86;100010.81;5072152;28;20028;-71
2022/05/12 00:18:52;;;;;;;2.90;0.40;;;;;;;18.09;74.04;100008.09;5070334;28;20115;-68
2022/05/12 00:21:18;;;;;;;0.20;0.20;;;;;;;18.10;73.56;99998.72;5073065;28;20032;-68
2022/05/12 00:23:56;;;;;;;0.57;0.50;;;;;;;18.03;74.08;99988.72;5069234;28;20028;-70
2022/05/12 00:26:23;;;;;;;1.58;0.40;;;;;;;17.93;75.08;99985.03;5069505;28;20072;-71
2022/05/12 00:28:48;;;;;;;1.42;0.52;;;;;;;17.99;74.95;99983.38;5065363;28;20031;-71
2022/05/12 00:31:14;;;;;;;0.63;0.40;;;;;;;17.98;75.14;99987.25;5062634;28;20033;-70
2022/05/12 00:33:39;;;;;;;2.10;0.60;;;;;;;17.98;75.24;99986.50;5067153;28;20037;-69
2022/05/12 00:36:04;;;;;;;2.75;0.57;;;;;;;18.01;75.16;99989.16;5069359;28;20166;-69
2022/05/12 00:38:30;;;;;;;2.55;0.90;;;;;;;17.91;75.99;99992.88;5071190;28;20040;-69
2022/05/12 00:40:55;;;;;;;2.20;0.57;;;;;;;17.91;75.59;99981.97;5072385;28;20036;-69
2022/05/12 00:43:38;;;;;;;1.42;1.05;;;;;;;17.89;76.55;99973.44;5067160;28;20366;-69
2022/05/12 00:46:05;;;;;;;0.68;0.63;;;;;;;17.94;76.55;99978.38;5054045;28;20036;-69
2022/05/12 00:48:31;;;;;;;2.67;0.38;;;;;;;17.91;76.58;99968.34;5049719;28;20431;-69
2022/05/12 00:50:56;;;;;;;1.05;0.95;;;;;;;17.89;77.06;99968.00;5065717;28;20029;-69
2022/05/12 00:53:22;;;;;;;0.52;0.40;;;;;;;17.91;76.92;99968.34;5064185;28;20041;-69
2022/05/12 00:55:50;;;;;;;0.60;0.45;;;;;;;17.94;77.19;99969.47;5048972;28;20106;-69
2022/05/12 00:58:19;;;;;;;1.35;0.68;;;;;;;18.00;76.67;99971.25;5066003;28;20329;-69
2022/05/12 01:00:46;;;;;;;2.08;1.85;;;;;;;18.00;76.74;99965.06;5071679;28;20067;-69
2022/05/12 01:03:16;;;;;;;0.47;0.38;;;;;;;17.94;77.59;99980.38;5068540;28;20072;-69
2022/05/12 01:05:42;;;;;;;1.23;0.60;;;;;;;17.93;77.61;99976.88;5071000;28;20036;-69
2022/05/12 01:08:13;;;;;;;2.10;0.28;;;;;;;17.91;77.78;99979.25;5069994;28;20834;-69
2022/05/12 01:10:40;;;;;;;1.15;0.50;;;;;;;17.83;78.14;99979.78;5050380;28;20056;-69
2022/05/12 01:13:06;;;;;;;0.22;0.22;;;;;;;17.84;78.48;99981.34;5052363;28;20469;-69
2022/05/12 01:15:31;;;;;;;0.50;0.30;;;;;;;17.80;78.50;99986.09;5070574;28;20086;-69
2022/05/12 01:18:06;;;;;;;1.10;0.43;;;;;;;17.82;78.92;99979.06;5059576;28;20451;-69
2022/05/12 01:20:33;;;;;;;0.40;0.40;;;;;;;17.82;78.63;99987.22;5064188;28;20039;-69
2022/05/12 01:23:25;;;;;;;4.68;1.10;;;;;;;17.73;79.76;99986.25;5069274;28;20060;-69
2022/05/12 01:25:54;;;;;;;;;;;;;;;17.66;80.26;99989.09;5071098;28;20051;-69
2022/05/12 01:28:20;;;;;;;0.88;0.52;;;;;;;17.69;80.41;99993.72;5065692;28;20003;-69
2022/05/12 01:30:45;;;;;;;1.27;0.60;;;;;;;17.70;80.50;99995.25;5066984;28;20438;-69
2022/05/12 01:33:10;;;;;;;0.80;0.52;;;;;;;17.72;80.29;99993.66;5069818;28;20111;-69
2022/05/12 01:35:36;;;;;;;1.25;0.60;;;;;;;17.73;80.60;99997.88;5064158;28;20039;-69
2022/05/12 01:38:01;;;;;;;3.55;0.80;;;;;;;17.80;80.61;99997.78;5069638;28;20040;-69
2022/05/12 01:40:27;;;;;;;0.38;0.38;;;;;;;17.73;80.96;100006.06;5064757;28;20029;-69
2022/05/12 01:42:53;;;;;;;5.55;0.70;;;;;;;17.64;81.63;100000.41;5070052;28;20066;-69
2022/05/12 01:45:21;;;;;;;0.50;0.50;;;;;;;17.67;81.93;100004.25;5069436;28;20070;-69
2022/05/12 01:47:47;;;;;;;4.15;0.60;;;;;;;17.66;82.12;100008.94;5066773;28;20033;-68
2022/05/12 01:50:14;;;;;;;3.97;0.60;;;;;;;17.71;81.93;100004.97;5063033;28;20045;-69
2022/05/12 01:52:43;;;;;;;4.10;0.55;;;;;;;17.70;82.24;100006.13;5065843;28;20551;-69
2022/05/12 01:55:11;;;;;;;0.45;0.40;;;;;;;17.66;82.43;100008.16;5070703;28;20068;-69
2022/05/12 01:57:36;;;;;;;1.77;0.80;;;;;;;17.57;82.57;100014.16;5050758;28;20457;-69
2022/05/12 02:00:06;;;;;;;0.45;0.45;;;;;;;17.59;82.53;100006.34;5070112;28;20063;-69
2022/05/12 02:02:37;;;;;;;5.68;0.77;;;;;;;17.54;82.83;100012.25;5062904;28;20036;-69
2022/05/12 02:05:02;;;;;;;2.72;1.50;;;;;;;17.45;83.11;100009.31;5070158;28;20771;-69
2022/05/12 02:07:27;;;;;;;1.02;0.60;;;;;;;17.43;83.30;99998.06;5056998;28;20028;-68
2022/05/12 02:09:53;;;;;;;0.93;0.57;;;;;;;17.37;83.59;100001.66;5064494;28;20374;-69
2022/05/12 02:12:18;;;;;;;1.00;0.50;;;;;;;17.35;83.91;100018.41;5069887;28;20091;-69
2022/05/12 02:14:44;;;;;;;0.63;0.40;;;;;;;17.40;83.50;100017.94;5052423;28;20043;-68
2022/05/12 02:17:09;;;;;;;0.77;0.50;;;;;;;17.44;83.18;100020.63;5068431;28;20040;-69
2022/05/12 02:19:34;;;;;;;0.73;0.38;;;;;;;17.41;82.82;100014.03;5069564;28;20098;-68
2022/05/12 02:22:02;;;;;;;1.35;0.60;;;;;;;17.44;81.71;100020.63;5063332;28;20866;-69
2022/05/12 02:24:28;;;;;;;2.17;0.80;;;;;;;17.43;80.67;100022.56;5063144;28;20094;-70
2022/05/12 02:26:55;;;;;;;1.52;0.57;;;;;;;17.29;81.65;100022.81;5064653;28;20659;-69
2022/05/12 02:29:21;;;;;;;0.95;0.55;;;;;;;17.40;81.24;100031.53;5060142;28;20029;-69
2022/05/12 02:31:46;;;;;;;0.70;0.50;;;;;;;17.39;81.13;100034.69;5061674;28;20033;-69
2022/05/12 02:34:13;;;;;;;2.20;0.68;;;;;;;17.31;81.67;100031.31;5069784;28;20032;-69
2022/05/12 02:36:38;;;;;;;0.45;0.45;;;;;;;17.35;82.08;100037.47;5056806;28;20033;-69
2022/05/12 02:39:03;;;;;;;3.10;0.40;;;;;;;17.27;81.73;100041.50;5066278;28;20086;-69
2022/05/12 02:41:29;;;;;;;0.30;0.30;;;;;;;17.31;80.61;100052.31;5071945;28;20400;-69
2022/05/12 02:43:54;;;;;;;0.50;0.30;;;;;;;17.40;79.81;100047.88;5051691;28;20037;-70
2022/05/12 02:46:20;;;;;;;2.92;0.40;;;;;;;17.29;79.79;100060.91;5063731;28;20481;-70
2022/05/12 02:48:46;;;;;;;0.80;0.40;;;;;;;17.17;80.87;100096.88;5069115;28;20040;-69
2022/05/12 02:51:12;;;;;;;0.65;0.50;;;;;;;17.22;80.56;100111.97;5069708;28;20047;-69
2022/05/12 02:53:39;;;;;;;1.20;0.40;;;;;;;17.17;81.07;100122.13;5066108;28;20029;-68
2022/05/12 02:56:06;;;;;;;0.40;0.30;;;;;;;17.17;81.78;100133.03;5058096;28;20036;-69
2022/05/12 02:58:33;;;;;;;0.32;0.30;;;;;;;17.19;81.98;100138.06;5061848;28;20040;-71
2022/05/12 03:00:59;;;;;;;0.75;0.57;;;;;;;17.22;81.51;100142.69;5066040;28;20521;-69
2022/05/12 03:03:24;;;;;;;1.17;0.52;;;;;;;17.09;81.82;100150.63;5061241;28;20039;-69
2022/05/12 03:05:51;;;;;;;1.50;0.65;;;;;;;17.12;81.26;100174.31;5069342;28;20190;-68
2022/05/12 03:08:17;;;;;;;0.50;0.22;;;;;;;17.11;80.96;100186.38;5023881;28;20150;-71
2022/05/12 03:10:43;;;;;;;1.23;0.40;;;;;;;17.11;80.42;100189.09;5069100;28;20036;-69
2022/05/12 03:13:08;;;;;;;0.68;0.32;;;;;;;17.02;81.25;100216.06;5069554;28;20036;-69
2022/05/12 03:15:34;;;;;;;1.10;0.43;;;;;;;17.00;81.07;100223.84;5067399;28;20036;-69
2022/05/12 03:17:59;;;;;;;0.30;0.30;;;;;;;16.91;80.38;100241.84;5068848;28;20032;-69
2022/05/12 03:20:27;;;;;;;0.20;0.10;;;;;;;16.80;78.59;100241.97;5067809;28;20036;-69
2022/05/12 03:22:53;;;;;;;0.30;0.30;;;;;;;16.81;77.69;100259.84;5068617;28;20042;-69
2022/05/12 03:25:19;;;;;;;0.30;0.20;;;;;;;16.76;77.98;100260.28;5069253;28;20040;-69
2022/05/12 03:27:46;;;;;;;0.80;0.38;;;;;;;16.76;77.00;100270.41;5069136;28;20032;-69
2022/05/12 03:30:16;;;;;;;3.53;0.38;;;;;;;16.73;77.66;100284.78;5068256;28;20042;-69
2022/05/12 03:32:41;;;;;;;0.93;0.35;;;;;;;16.65;78.35;100289.53;5069800;28;20370;-69
2022/05/12 03:35:09;;;;;;;0.40;0.30;;;;;;;16.68;78.20;100294.19;5066376;28;20082;-69
2022/05/12 03:37:35;;;;;;;0.52;0.40;;;;;;;16.71;77.88;100303.47;5061834;28;20033;-69
2022/05/12 03:40:00;;;;;;;0.20;0.20;;;;;;;16.63;78.87;100321.03;5068792;28;20131;-69
2022/05/12 03:42:26;;;;;;;0.20;0.20;;;;;;;16.65;78.65;100307.78;5072630;28;20111;-69
2022/05/12 03:44:54;;;;;;;0.10;0.10;;;;;;;16.66;78.76;100318.28;5073704;28;20041;-69
2022/05/12 03:47:28;;;;;;;0.20;0.20;;;;;;;16.72;78.32;100338.44;5072399;28;20055;-69
2022/05/12 03:50:24;;;;;;;0.50;0.38;;;;;;;16.65;78.24;100343.16;5065902;28;20032;-69
2022/05/12 03:52:52;;;;;;;0.38;0.30;;;;;;;16.53;78.39;100357.25;5049516;28;20126;-69
2022/05/12 03:55:21;;;;;;;0.40;0.30;;;;;;;16.54;78.90;100353.34;5053738;28;20033;-69
2022/05/12 03:57:48;;;;;;;0.30;0.20;;;;;;;16.59;78.74;100358.38;5052795;28;20478;-69
2022/05/12 04:00:18;;;;;;;0.45;0.28;;;;;;;16.55;78.43;100368.50;5053413;28;20032;-68
2022/05/12 04:02:46;;;;;;;3.10;0.30;;;;;;;16.56;78.40;100368.09;5058303;28;20056;-69
2022/05/12 04:05:12;;;;;;;0.40;0.40;;;;;;;16.52;78.31;100375.50;5073245;28;20036;-69
2022/05/12 04:07:43;;;;;;;0.40;0.30;;;;;;;16.50;78.45;100379.81;5072548;28;20033;-69
2022/05/12 04:10:09;;;;;;;0.20;0.20;;;;;;;16.54;77.93;100396.84;5073826;28;20036;-69
2022/05/12 04:12:35;;;;;;;0.50;0.20;;;;;;;16.47;78.37;100397.69;5050927;28;20111;-69
2022/05/12 04:15:00;;;;;;;0.10;0.10;;;;;;;16.51;77.60;100401.13;5035239;28;20131;-69
2022/05/12 04:17:25;;;;;;;0.32;0.32;;;;;;;16.51;77.07;100408.53;5061480;28;20032;-69
2022/05/12 04:19:52;;;;;;;0.30;0.30;;;;;;;16.41;77.67;100414.81;5071768;28;20063;-70
2022/05/12 04:22:18;;;;;;;0.10;0.10;;;;;;;16.40;78.10;100424.91;5069732;28;20036;-70
2022/05/12 04:24:44;;;;;;;0.20;0.20;;;;;;;16.44;77.83;100425.66;5071576;28;20045;-70
2022/05/12 04:27:11;;;;;;;8.25;0.20;;;;;;;16.51;77.46;100428.31;5062246;28;20067;-70
2022/05/12 04:29:44;;;;;;;1.67;0.40;;;;;;;16.53;77.46;100438.81;5072247;28;20043;-70
2022/05/12 04:32:10;;;;;;;0.03;0.03;;;;;;;16.59;77.17;100448.09;5073339;28;20381;-69
2022/05/12 04:37:53;;;;;;;1.40;0.40;;;;;;;16.54;77.31;100467.56;5053104;28;20130;-70
2022/05/12 04:40:26;;;;;;;0.80;0.30;;;;;;;16.53;76.96;100464.06;5054481;28;20060;-70
2022/05/12 04:42:54;;;;;;;0.20;0.20;;;;;;;16.40;77.11;100478.47;5060597;28;20025;-70
2022/05/12 04:45:21;;;;;;;5.20;0.70;;;;;;;16.36;77.32;100480.44;5070881;28;20147;-70
2022/05/12 04:47:48;;;;;;;1.17;0.22;;;;;;;16.26;77.20;100491.00;5071916;28;20075;-70
2022/05/12 04:50:17;;;;;;;1.85;0.40;;;;;;;16.29;76.60;100500.31;5058055;28;20033;-71
2022/05/12 04:52:43;;;;;;;1.58;0.80;;;;;;;16.34;76.46;100507.28;5034618;28;20055;-70
2022/05/12 04:55:10;;;;;;;1.48;0.50;;;;;;;16.41;76.46;100516.16;5057697;28;20037;-70
2022/05/12 04:57:44;;;;;;;0.50;0.40;;;;;;;16.41;75.92;100513.44;5070052;28;20115;-70
2022/05/12 05:00:32;;;;;;;0.50;0.50;;;;;;;16.37;76.01;100528.22;5071337;28;20051;-70
2022/05/12 05:02:58;;;;;;;6.50;0.45;;;;;;;16.41;75.99;100529.75;5067356;28;20044;-70
2022/05/12 05:05:24;;;;;;;0.47;0.47;;;;;;;16.49;75.63;100533.22;5049053;28;20041;-70
2022/05/12 05:07:49;;;;;;;4.30;1.08;;;;;;;16.62;74.90;100540.53;5062439;28;20401;-70
2022/05/12 05:10:16;;;;;;;5.07;0.77;;;;;;;16.65;74.52;100547.88;5071227;28;20548;-71
2022/05/12 05:12:42;;;;;;;2.80;0.40;;;;;;;16.78;74.48;100548.19;5070727;28;20377;-70
2022/05/12 05:15:10;;;;;;;1.10;0.57;;;;;;;16.90;73.67;100561.31;5050902;28;20115;-71
2022/05/12 05:17:36;;;;;;;1.30;0.47;;;;;;;17.27;72.08;100564.13;5051842;28;20464;-71
2022/05/12 05:20:05;;;;;;;1.08;0.82;;;;;;;17.40;70.07;100578.81;5050898;28;20037;-70
2022/05/12 05:22:32;;;;;;;1.60;0.50;;;;;;;17.34;69.86;100580.44;5052816;28;20036;-69
2022/05/12 05:24:59;;;;;;;2.13;0.60;;;;;;;17.28;69.92;100573.09;5053796;28;20044;-71
2022/05/12 05:27:24;;;;;;;0.98;0.25;;;;;;;17.17;69.63;100586.78;5065339;28;20501;-71
2022/05/12 05:29:51;;;;;;;0.88;0.77;;;;;;;17.01;69.95;100583.81;5062870;28;20085;-71
2022/05/12 05:32:16;;;;;;;0.68;0.40;;;;;;;17.01;69.73;100595.44;5069422;28;20166;-71
2022/05/12 05:34:42;;;;;;;1.15;0.50;;;;;;;16.90;69.42;100589.31;5046604;28;20115;-71
2022/05/12 05:37:08;;;;;;;1.30;0.60;;;;;;;16.94;69.88;100589.28;5062062;28;20044;-71
2022/05/12 05:39:34;;;;;;;0.70;0.40;;;;;;;17.42;69.03;100598.22;5066148;28;20071;-71
2022/05/12 05:42:06;;;;;;;3.15;0.60;;;;;;;17.98;66.43;100605.13;5069122;28;20044;-70
2022/05/12 05:44:32;;;;;;;0.50;0.40;;;;;;;18.35;63.58;100607.06;5068988;28;20178;-71
2022/05/12 05:47:02;;;;;;;0.38;0.38;;;;;;;18.67;62.79;100612.91;5069887;28;20040;-70
2022/05/12 05:49:32;;;;;;;0.52;0.47;;;;;;;18.70;62.32;100617.53;5064331;28;20408;-70
2022/05/12 05:54:42;;;;;;;0.93;0.70;;;;;;;18.79;61.97;100639.63;5061435;28;20051;-70
2022/05/12 05:57:08;;;;;;;0.40;0.40;;;;;;;18.72;62.61;100642.44;5068563;28;20524;-70
2022/05/12 05:59:34;;;;;;;2.78;0.52;;;;;;;18.96;61.85;100635.88;5067286;28;20059;-71
2022/05/12 06:02:00;;;;;;;0.30;0.30;;;;;;;19.18;61.68;100650.00;5068756;28;20564;-70
2022/05/12 06:04:26;;;;;;;1.00;0.60;;;;;;;19.45;61.19;100643.34;5063652;28;20132;-70
2022/05/12 06:06:51;;;;;;;0.47;0.45;;;;;;;19.47;60.40;100659.34;5069452;28;20111;-71
2022/05/12 06:09:17;;;;;;;0.43;0.32;;;;;;;19.18;60.49;100658.94;5065232;28;20037;-70
2022/05/12 06:11:44;;;;;;;1.17;0.57;;;;;;;18.80;61.60;100671.19;5068573;28;20034;-70
2022/05/12 06:14:10;;;;;;;0.50;0.40;;;;;;;18.59;63.36;100671.47;5066841;28;20028;-71
2022/05/12 06:16:35;;;;;;;0.57;0.38;;;;;;;18.44;64.12;100686.44;5068500;28;20036;-70
2022/05/12 06:19:02;;;;;;;0.50;0.40;;;;;;;18.26;64.75;100683.09;5068250;28;20043;-71
2022/05/12 06:21:27;;;;;;;0.85;0.40;;;;;;;18.36;64.96;100683.00;5070237;28;20121;-72
2022/05/12 06:23:53;;;;;;;1.95;0.50;;;;;;;18.47;64.86;100694.59;5067382;28;20079;-70
2022/05/12 06:26:20;;;;;;;0.40;0.40;;;;;;;18.61;64.88;100710.03;5070131;28;20036;-69
2022/05/12 06:28:47;;;;;;;0.82;0.50;;;;;;;18.86;62.95;100703.09;5065269;28;20539;-70
2022/05/12 06:31:15;;;;;;;0.63;0.45;;;;;;;18.94;62.20;100706.50;5062572;28;20115;-70
2022/05/12 06:33:41;;;;;;;0.77;0.40;;;;;;;18.84;62.83;100707.41;5069274;28;20735;-69
2022/05/12 06:36:07;;;;;;;0.45;0.32;;;;;;;18.72;63.02;100716.13;5069765;28;20040;-70
2022/05/12 06:38:34;;;;;;;0.75;0.52;;;;;;;18.62;63.19;100719.78;5064132;28;20482;-70
2022/05/12 06:41:00;;;;;;;0.57;0.40;;;;;;;18.53;63.26;100725.69;5066501;28;20079;-69
2022/05/12 06:43:27;;;;;;;0.52;0.43;;;;;;;18.46;63.21;100727.72;5067815;28;20554;-69
2022/05/12 06:45:55;;;;;;;0.38;0.30;;;;;;;18.32;63.73;100736.03;5066598;28;20032;-69
2022/05/12 06:48:21;;;;;;;1.35;0.50;;;;;;;18.21;64.16;100749.00;5068670;28;20044;-70
2022/05/12 06:50:47;;;;;;;0.65;0.40;;;;;;;18.28;64.77;100748.91;5064408;28;20075;-70
2022/05/12 06:53:13;;;;;;;0.75;0.50;;;;;;;18.41;64.45;100749.94;5068217;28;20028;-70
2022/05/12 06:55:39;;;;;;;1.05;0.82;;;;;;;18.39;63.58;100752.34;5069866;28;20475;-70
2022/05/12 06:58:04;;;;;;;1.10;0.50;;;;;;;18.41;63.43;100750.72;5068455;28;20043;-70
2022/05/12 07:00:30;;;;;;;0.25;0.20;;;;;;;18.57;63.74;100750.22;5063583;28;20392;-70
2022/05/12 07:02:55;;;;;;;0.45;0.30;;;;;;;18.64;63.58;100755.59;5051529;28;20604;-69
2022/05/12 07:05:47;;;;;;;0.32;0.30;;;;;;;18.66;63.92;100767.63;5055302;28;20038;-72
2022/05/12 07:08:13;;;;;;;0.57;0.45;;;;;;;18.71;63.27;100769.94;5041652;28;20060;-69
2022/05/12 07:10:39;;;;;;;0.52;0.40;;;;;;;18.70;63.61;100773.06;5068311;28;20050;-69
2022/05/12 07:13:05;;;;;;;0.90;0.50;;;;;;;18.87;63.65;100778.31;5068458;28;20036;-69
2022/05/12 07:15:31;;;;;;;0.75;0.45;;;;;;;18.93;62.77;100790.34;5071358;28;20040;-69
2022/05/12 07:17:59;;;;;;;0.90;0.52;;;;;;;19.08;62.54;100787.44;5068937;28;20040;-70
2022/05/12 07:28:42;;;;;;;1.75;0.45;;;;;;;19.00;60.71;100819.53;5060001;28;20029;-70
2022/05/12 07:31:09;;;;;;;0.75;0.45;;;;;;;19.02;60.24;100819.91;5066592;28;20032;-69
2022/05/12 07:33:39;;;;;;;1.08;0.55;;;;;;;18.90;60.62;100821.19;5047921;28;20676;-69
2022/05/12 07:36:09;;;;;;;1.13;0.50;;;;;;;18.99;61.49;100822.66;5064257;28;20162;-70
2022/05/12 07:38:35;;;;;;;2.33;0.70;;;;;;;19.06;60.79;100828.81;5065310;28;20040;-69
2022/05/12 07:41:01;;;;;;;0.73;0.40;;;;;;;19.10;60.36;100826.81;5066492;28;20047;-69
2022/05/12 07:43:27;;;;;;;1.17;0.85;;;;;;;19.19;60.77;100831.78;5053193;28;20028;-70
2022/05/12 07:45:53;;;;;;;0.60;0.40;;;;;;;19.18;61.66;100833.72;5053628;28;20043;-68
2022/05/12 07:48:19;;;;;;;3.33;0.73;;;;;;;19.23;60.85;100833.28;5072210;28;20024;-69
2022/05/12 07:50:45;;;;;;;0.70;0.60;;;;;;;19.21;61.00;100845.78;5068639;28;20640;-69
2022/05/12 07:53:11;;;;;;;1.00;0.70;;;;;;;19.23;60.13;100844.22;5072686;28;20039;-69
2022/05/12 07:55:36;;;;;;;0.98;0.88;;;;;;;19.21;60.21;100845.78;5051405;28;20032;-69
2022/05/12 07:58:04;;;;;;;1.30;0.77;;;;;;;19.29;59.70;100856.25;5070646;28;20107;-69
2022/05/12 08:00:30;;;;;;;1.30;0.80;;;;;;;19.17;59.85;100845.84;5065789;28;20049;-69
2022/05/12 08:02:56;;;;;;;4.57;1.00;;;;;;;19.28;59.54;100860.13;5071822;28;20127;-69
2022/05/12 08:05:23;;;;;;;0.63;0.45;;;;;;;19.24;60.13;100864.13;5070374;28;20037;-69
2022/05/12 08:07:49;;;;;;;2.67;0.43;;;;;;;19.19;59.03;100873.53;5066474;28;20037;-69
2022/05/12 08:10:16;;;;;;;0.70;0.57;;;;;;;19.24;59.09;100862.13;5071700;28;20033;-69
2022/05/12 08:12:42;;;;;;;0.88;0.60;;;;;;;19.33;59.59;100869.88;5066004;28;20473;-69
2022/05/12 08:15:09;;;;;;;0.90;0.60;;;;;;;19.50;59.11;100869.66;5071409;28;20123;-69
2022/05/12 08:17:36;;;;;;;1.52;0.47;;;;;;;19.68;59.41;100881.16;5066799;28;20094;-69
2022/05/12 08:20:05;;;;;;;0.63;0.50;;;;;;;19.78;58.18;100887.66;5049283;28;20763;-69
2022/05/12 08:22:31;;;;;;;0.98;0.60;;;;;;;19.65;58.30;100886.63;5071212;28;20460;-69
2022/05/12 08:24:57;;;;;;;2.42;0.75;;;;;;;19.78;57.76;100891.16;5067024;28;20044;-70
2022/05/12 08:27:24;;;;;;;0.52;0.52;;;;;;;19.96;57.95;100899.09;5071197;28;20040;-69
2022/05/12 08:29:49;;;;;;;0.75;0.63;;;;;;;20.07;56.91;100891.53;5053800;28;20029;-69
2022/05/12 08:32:15;;;;;;;0.65;0.60;;;;;;;20.18;56.76;100897.66;5068530;28;20459;-69
2022/05/12 08:34:40;;;;;;;0.88;0.57;;;;;;;20.40;55.35;100907.06;5071892;28;20047;-69
2022/05/12 08:37:06;;;;;;;0.65;0.65;;;;;;;20.58;54.84;100901.31;5065932;28;20039;-69
2022/05/12 08:39:31;;;;;;;0.95;0.70;;;;;;;20.74;54.18;100911.59;5070494;28;20094;-69
2022/05/12 08:42:03;;;;;;;0.40;0.40;;;;;;;20.90;52.66;100912.50;5071691;28;20069;-69
2022/05/12 08:44:33;;;;;;;0.88;0.50;;;;;;;20.91;52.46;100924.22;5071704;28;20036;-69
2022/05/12 08:47:02;;;;;;;0.90;0.40;;;;;;;21.03;52.81;100924.41;5069735;28;20041;-69
2022/05/12 08:49:30;;;;;;;2.95;0.40;;;;;;;21.08;52.73;100923.91;5071579;28;20039;-69
2022/05/12 08:52:08;;;;;;;1.30;0.55;;;;;;;21.32;51.92;100930.13;5066854;28;20381;-69
2022/05/12 08:54:38;;;;;;;0.20;0.10;;;;;;;21.62;51.58;100924.47;5070453;28;20040;-69
2022/05/12 08:57:07;;;;;;;0.35;0.35;;;;;;;21.66;51.20;100925.13;5070662;28;20089;-69
2022/05/12 08:59:37;;;;;;;6.13;0.30;;;;;;;21.82;50.89;100918.94;5067739;28;20044;-70
2022/05/12 09:02:19;;;;;;;1.00;0.55;;;;;;;21.88;50.99;100915.28;5071909;28;20036;-69
2022/05/12 09:05:01;;;;;;;1.45;0.50;;;;;;;22.11;49.91;100919.88;5066183;28;20071;-70
2022/05/12 09:07:34;;;;;;;0.35;0.30;;;;;;;22.32;48.77;100916.63;5070080;28;20119;-70
2022/05/12 09:10:21;;;;;;;0.98;0.30;;;;;;;22.49;48.87;100925.66;5066738;28;20480;-70
2022/05/12 09:12:59;;;;;;;1.00;0.30;;;;;;;22.54;48.89;100925.91;5065967;28;20047;-69
2022/05/12 09:15:36;;;;;;;0.40;0.40;;;;;;;22.56;48.83;100930.97;5071192;28;20032;-69
2022/05/12 09:18:37;;;;;;;1.10;0.20;;;;;;;22.55;48.29;100932.94;5070326;28;20397;-70
2022/05/12 09:21:09;;;;;;;0.63;0.30;;;;;;;22.53;48.44;100929.09;5007691;28;20116;-70
2022/05/12 09:23:35;;;;;;;0.52;0.38;;;;;;;22.36;49.22;100942.81;5056899;28;20053;-70
2022/05/12 09:26:21;;;;;;;0.30;0.30;;;;;;;22.20;48.35;100929.06;5071319;28;20044;-70
2022/05/12 09:28:46;;;;;;;0.60;0.40;;;;;;;21.93;48.76;100928.50;5061826;28;20025;-70
2022/05/12 09:31:12;;;;;;;0.32;0.25;;;;;;;21.87;49.28;100940.41;5070172;28;20496;-71
2022/05/12 09:33:38;;;;;;;0.40;0.40;;;;;;;21.73;50.08;100933.22;5069832;28;20032;-71
2022/05/12 09:36:14;;;;;;;0.52;0.22;;;;;;;21.90;48.97;100936.81;5070810;28;20094;-70
2022/05/12 09:38:43;;;;;;;3.40;0.28;;;;;;;21.83;48.48;100945.19;5063972;28;20071;-70
2022/05/12 09:41:21;;;;;;;0.20;0.20;;;;;;;21.72;47.60;100941.88;5070653;28;20438;-70
2022/05/12 09:43:50;;;;;;;6.00;0.40;;;;;;;21.87;49.17;100937.66;5060865;28;20071;-70
2022/05/12 09:46:20;;;;;;;0.35;0.20;;;;;;;22.12;48.38;100932.41;5069091;28;20090;-71
2022/05/12 09:48:48;;;;;;;0.10;0.10;;;;;;;22.37;47.95;100938.88;5063123;28;20036;-69
2022/05/12 09:51:33;;;;;;;0.63;0.22;;;;;;;22.83;47.53;100945.25;5065377;28;20036;-70
2022/05/12 09:54:23;;;;;;;0.13;0.13;;;;;;;23.16;45.30;100938.47;5047094;28;20099;-70
2022/05/12 09:57:26;;;;;;;1.10;0.30;;;;;;;23.26;45.37;100938.22;5052034;28;20037;-70
2022/05/12 09:59:58;;;;;;;0.45;0.32;;;;;;;23.19;45.09;100938.38;5052749;28;20469;-67
2022/05/12 10:08:29;;;;;;;0.13;0.13;;;;;;;22.89;45.79;100952.53;5061844;28;20028;-67
2022/05/12 10:11:03;;;;;;;1.35;0.52;;;;;;;22.90;45.07;100950.56;5060953;28;20047;-67
2022/05/12 10:13:31;;;;;;;0.20;0.13;;;;;;;22.75;45.36;100955.63;5061000;28;20471;-67
2022/05/12 10:15:59;;;;;;;0.65;0.25;;;;;;;22.50;45.23;100957.41;5060598;28;20037;-67
2022/05/12 10:18:33;;;;;;;0.30;0.22;;;;;;;22.45;45.00;100953.22;5056602;28;21566;-67
2022/05/12 10:21:12;;;;;;;0.50;0.20;;;;;;;22.32;45.83;100955.06;5050544;28;20049;-67
2022/05/12 10:23:43;;;;;;;0.52;0.20;;;;;;;22.36;46.74;100953.78;5047254;28;20036;-67
2022/05/12 10:26:22;;;;;;;0.10;0.10;;;;;;;22.27;46.48;100950.88;5053453;28;20040;-66
2022/05/12 10:28:55;;;;;;;0.95;0.65;;;;;;;22.13;46.33;100959.41;5037916;28;20496;-68
2022/05/12 10:31:28;;;;;;;0.57;0.20;;;;;;;22.08;46.93;100953.66;5051476;28;20090;-68
2022/05/12 10:34:27;;;;;;;0.22;0.17;;;;;;;21.96;46.12;100968.03;5053444;28;20098;-67
2022/05/12 10:36:58;;;;;;;1.15;0.45;;;;;;;21.98;45.87;100962.91;5052781;28;20506;-69
2022/05/12 10:39:33;;;;;;;0.32;0.10;;;;;;;21.99;46.28;100959.72;5059027;28;20131;-67
2022/05/12 10:42:12;;;;;;;0.15;0.05;;;;;;;22.05;46.61;100958.03;5053701;28;20040;-66
2022/05/12 10:44:55;;;;;;;0.22;0.20;;;;;;;22.01;47.38;100956.56;5060986;28;20869;-67
2022/05/12 10:47:36;;;;;;;0.25;0.10;;;;;;;22.17;46.75;100962.84;5056082;28;20025;-67
2022/05/12 10:50:11;;;;;;;0.55;0.20;;;;;;;22.46;46.97;100960.22;5058883;28;20112;-68
2022/05/12 10:53:03;;;;;;;0.43;0.25;;;;;;;22.74;44.91;100970.59;5053542;28;20064;-67
2022/05/12 10:55:28;;;;;;;5.10;0.90;;;;;;;22.79;45.07;100969.28;5061603;28;20040;-69
2022/05/12 10:58:19;;;;;;;0.32;0.20;;;;;;;22.68;44.28;100968.78;5054356;28;20024;-67
2022/05/12 11:01:12;;;;;;;0.10;0.10;;;;;;;22.89;44.37;100960.78;5059246;28;20051;-66
2022/05/12 11:03:44;;;;;;;0.63;0.20;;;;;;;23.11;43.85;100969.25;5044415;28;20029;-64
2022/05/12 11:06:15;;;;;;;0.20;0.10;;;;;;;23.26;43.65;100965.72;5041867;28;20136;-66
2022/05/12 11:08:49;;;;;;;0.55;0.10;;;;;;;23.41;42.81;100957.06;5041845;28;20053;-65
2022/05/12 11:11:23;;;;;;;0.15;0.15;;;;;;;23.33;42.29;100961.22;5043920;28;20098;-65
2022/05/12 11:13:58;;;;;;;0.10;0.10;;;;;;;23.43;42.17;100960.16;5039081;28;20124;-64
2022/05/12 11:16:36;;;;;;;0.32;0.15;;;;;;;23.60;42.16;100967.94;5035159;28;20357;-63
2022/05/12 11:19:20;;;;;;;1.00;0.13;;;;;;;23.77;42.03;100957.66;5046565;28;20036;-62
2022/05/12 11:22:12;;;;;;;0.10;0.03;;;;;;;24.01;42.06;100961.63;5036190;28;20072;-62
2022/05/12 11:24:46;;;;;;;0.80;0.00;;;;;;;24.06;40.61;100966.63;5032429;28;20037;-64
2022/05/12 11:27:18;;;;;;;0.10;0.10;;;;;;;24.21;40.23;100973.25;5044250;28;20467;-63
2022/05/12 11:30:05;;;;;;;0.20;0.20;;;;;;;24.18;40.83;100963.88;5033727;28;20030;-63
2022/05/12 11:32:37;;;;;;;0.10;0.10;;;;;;;24.26;39.78;100956.16;5031398;28;20508;-66
2022/05/12 11:35:15;;;;;;;0.17;0.17;;;;;;;24.38;40.27;100962.88;5038363;28;20030;-66
2022/05/12 11:37:40;;;;;;;0.10;0.10;;;;;;;24.57;40.00;100961.88;5043333;28;20040;-63
2022/05/12 11:40:10;;;;;;;0.20;0.20;;;;;;;24.76;38.96;100956.16;5026985;28;20479;-66
2022/05/12 11:45:42;;;;;;;0.35;0.15;;;;;;;24.95;39.35;100957.84;5029782;28;20033;-66
2022/05/12 11:48:24;;;;;;;0.90;0.82;;;;;;;25.07;38.38;100969.31;5033887;28;20920;-65
2022/05/12 11:51:05;;;;;;;0.52;0.32;;;;;;;24.90;37.94;100958.44;5035567;28;20620;-65
2022/05/12 11:53:53;;;;;;;0.10;0.10;;;;;;;24.69;37.64;100961.09;5039488;28;20037;-65
2022/05/12 11:56:44;;;;;;;0.35;0.20;;;;;;;24.69;37.74;100966.59;5044257;28;20357;-65
2022/05/12 11:59:18;;;;;;;0.00;0.00;;;;;;;24.64;38.74;100961.66;5035740;28;20052;-65
2022/05/12 12:01:44;;;;;;;0.00;0.00;;;;;;;24.63;39.05;100951.84;5029524;28;20041;-65